createdAt,value
2022-08-01T00:00:52.610Z,99818.09
2022-08-01T00:03:42.435Z,99829.06
2022-08-01T00:06:30.868Z,99823.50
2022-08-01T00:09:24.078Z,99825.31
2022-08-01T00:12:13.041Z,99821.31
2022-08-01T00:15:01.785Z,99823.50
2022-08-01T00:17:50.314Z,99820.44
2022-08-01T00:20:40.207Z,99825.00
2022-08-01T00:23:28.682Z,99823.34
2022-08-01T00:26:17.225Z,99821.66
2022-08-01T00:29:11.072Z,99819.31
2022-08-01T00:32:14.145Z,99828.59
2022-08-01T00:35:02.571Z,99830.34
2022-08-01T00:37:52.809Z,99833.97
2022-08-01T00:40:41.255Z,99832.03
2022-08-01T00:43:29.708Z,99831.22
2022-08-01T00:46:18.294Z,99832.03
2022-08-01T00:49:06.841Z,99833.84
2022-08-01T00:51:59.309Z,99833.84
2022-08-01T00:54:49.165Z,99825.09
2022-08-01T00:58:01.737Z,99838.22
2022-08-01T01:00:52.704Z,99832.69
2022-08-01T01:03:58.506Z,99829.50
2022-08-01T01:06:53.405Z,99837.50
2022-08-01T01:09:54.416Z,99834.44
2022-08-01T01:12:50.134Z,99830.28
2022-08-01T01:15:42.820Z,99835.78
2022-08-01T01:18:34.397Z,99834.38
2022-08-01T01:21:53.916Z,99841.00
2022-08-01T01:24:47.434Z,99839.72
2022-08-01T01:27:44.796Z,99829.78
2022-08-01T01:30:34.992Z,99836.94
2022-08-01T01:33:23.461Z,99848.25
2022-08-01T01:36:12.231Z,99846.47
2022-08-01T01:39:00.713Z,99850.88
2022-08-01T01:41:49.174Z,99850.88
2022-08-01T01:44:38.472Z,99850.31
2022-08-01T01:47:28.307Z,99854.84
2022-08-01T01:50:16.817Z,99852.50
2022-08-01T01:53:05.362Z,99860.47
2022-08-01T01:55:55.009Z,99854.41
2022-08-01T01:58:43.512Z,99863.25
2022-08-01T02:01:38.639Z,99855.78
2022-08-01T02:04:45.697Z,99863.19
2022-08-01T02:07:34.408Z,99859.63
2022-08-01T02:10:28.402Z,99861.16
2022-08-01T02:13:17.224Z,99860.16
2022-08-01T02:16:12.124Z,99855.91
2022-08-01T02:19:00.842Z,99857.69
2022-08-01T02:21:53.457Z,99863.19
2022-08-01T02:24:45.297Z,99859.72
2022-08-01T02:27:45.629Z,99862.63
2022-08-01T02:30:36.193Z,99868.81
2022-08-01T02:33:26.771Z,99868.97
2022-08-01T02:36:31.361Z,99871.59
2022-08-01T02:39:23.178Z,99863.97
2022-08-01T02:42:11.701Z,99870.03
2022-08-01T02:45:00.487Z,99872.66
2022-08-01T02:47:49.126Z,99870.72
2022-08-01T02:50:37.645Z,99872.84
2022-08-01T02:53:38.999Z,99868.75
2022-08-01T02:56:36.642Z,99869.19
2022-08-01T02:59:26.760Z,99857.47
2022-08-01T03:02:15.442Z,99869.13
2022-08-01T03:05:04.104Z,99867.88
2022-08-01T03:07:52.761Z,99867.63
2022-08-01T03:10:42.282Z,99869.16
2022-08-01T03:13:32.196Z,99869.16
2022-08-01T03:16:22.653Z,99867.63
2022-08-01T03:19:12.811Z,99867.63
2022-08-01T03:22:01.348Z,99868.84
2022-08-01T03:24:51.961Z,99869.34
2022-08-01T03:27:40.545Z,99866.31
2022-08-01T03:30:30.850Z,99868.34
2022-08-01T03:33:19.396Z,99873.03
2022-08-01T03:36:08.070Z,99870.94
2022-08-01T03:38:59.370Z,99875.84
2022-08-01T03:41:56.653Z,99878.03
2022-08-01T03:44:46.550Z,99870.56
2022-08-01T03:47:44.603Z,99873.41
2022-08-01T03:50:34.807Z,99868.56
2022-08-01T03:53:25.141Z,99877.75
2022-08-01T03:56:13.678Z,99876.06
2022-08-01T03:59:02.329Z,99871.09
2022-08-01T04:01:50.927Z,99873.44
2022-08-01T04:04:40.999Z,99875.13
2022-08-01T04:07:31.661Z,99867.03
2022-08-01T04:10:20.189Z,99872.72
2022-08-01T04:13:08.685Z,99869.28
2022-08-01T04:15:57.212Z,99865.56
2022-08-01T04:18:45.752Z,99873.19
2022-08-01T04:21:36.515Z,99871.94
2022-08-01T04:24:25.762Z,99875.53
2022-08-01T04:27:16.547Z,99880.78
2022-08-01T04:30:27.781Z,99885.44
2022-08-01T04:33:17.445Z,99883.50
2022-08-01T04:36:06.612Z,99885.50
2022-08-01T04:39:00.214Z,99885.56
2022-08-01T04:41:48.745Z,99882.03
2022-08-01T04:44:37.634Z,99888.84
2022-08-01T04:47:26.176Z,99894.84
2022-08-01T04:50:14.679Z,99894.88
2022-08-01T04:53:04.033Z,99887.34
2022-08-01T04:55:53.963Z,99890.56
2022-08-01T04:58:42.828Z,99884.09
2022-08-01T05:01:31.460Z,99891.28
2022-08-01T05:04:20.043Z,99893.38
2022-08-01T05:07:08.745Z,99898.94
2022-08-01T05:09:57.277Z,99893.81
2022-08-01T05:12:47.566Z,99897.31
2022-08-01T05:15:37.544Z,99892.91
2022-08-01T05:18:27.866Z,99891.41
2022-08-01T05:21:17.023Z,99896.56
2022-08-01T05:24:06.653Z,99898.50
2022-08-01T05:26:55.196Z,99896.84
2022-08-01T05:29:45.151Z,99900.72
2022-08-01T05:32:33.756Z,99902.78
2022-08-01T05:35:22.255Z,99902.94
2022-08-01T05:38:12.631Z,99905.41
2022-08-01T05:41:03.497Z,99910.00
2022-08-01T05:43:52.226Z,99910.09
2022-08-01T05:46:42.058Z,99915.78
2022-08-01T05:49:30.644Z,99909.84
2022-08-01T05:52:19.207Z,99902.91
2022-08-01T05:55:10.327Z,99899.03
2022-08-01T05:57:58.870Z,99906.31
2022-08-01T06:00:47.446Z,99907.72
2022-08-01T06:03:39.901Z,99908.41
2022-08-01T06:06:28.427Z,99919.19
2022-08-01T06:09:17.225Z,99917.78
2022-08-01T06:12:07.870Z,99912.09
2022-08-01T06:14:56.709Z,99919.94
2022-08-01T06:17:45.560Z,99920.88
2022-08-01T06:20:35.515Z,99922.41
2022-08-01T06:23:32.288Z,99930.44
2022-08-01T06:26:21.812Z,99928.19
2022-08-01T06:29:10.330Z,99922.06
2022-08-01T06:32:01.210Z,99922.47
2022-08-01T06:34:49.744Z,99931.06
2022-08-01T06:37:39.591Z,99937.53
2022-08-01T06:40:28.076Z,99929.72
2022-08-01T06:43:16.609Z,99936.00
2022-08-01T06:46:05.057Z,99934.91
2022-08-01T06:48:53.520Z,99942.00
2022-08-01T06:51:42.013Z,99942.31
2022-08-01T06:54:31.886Z,99947.22
2022-08-01T06:57:20.321Z,99949.91
2022-08-01T07:00:12.235Z,99951.31
2022-08-01T07:03:00.899Z,99960.25
2022-08-01T07:05:49.373Z,99953.19
2022-08-01T07:08:37.869Z,99957.00
2022-08-01T07:11:29.290Z,99952.22
2022-08-01T07:14:17.785Z,99950.19
2022-08-01T07:17:06.277Z,99948.53
2022-08-01T07:19:55.492Z,99939.34
2022-08-01T07:22:47.429Z,99939.06
2022-08-01T07:25:36.831Z,99937.78
2022-08-01T07:28:29.012Z,99933.34
2022-08-01T07:31:17.714Z,99937.97
2022-08-01T07:34:06.300Z,99925.75
2022-08-01T07:36:54.793Z,99927.75
2022-08-01T07:39:43.390Z,99929.75
2022-08-01T07:42:31.873Z,99927.44
2022-08-01T07:45:21.949Z,99929.94
2022-08-01T07:48:10.487Z,99924.50
2022-08-01T07:50:59.233Z,99930.44
2022-08-01T07:53:47.966Z,99923.66
2022-08-01T07:56:36.583Z,99917.00
2022-08-01T07:59:26.156Z,99923.25
2022-08-01T08:02:16.327Z,99919.56
2022-08-01T08:05:05.735Z,99914.38
2022-08-01T08:07:54.737Z,99918.38
2022-08-01T08:10:43.281Z,99914.69
2022-08-01T08:13:31.781Z,99921.44
2022-08-01T08:16:21.855Z,99913.31
2022-08-01T08:19:12.414Z,99920.25
2022-08-01T08:22:01.067Z,99922.03
2022-08-01T08:24:49.999Z,99922.63
2022-08-01T08:27:38.570Z,99932.22
2022-08-01T08:30:27.069Z,99932.53
2022-08-01T08:33:15.688Z,99926.66
2022-08-01T08:36:06.334Z,99935.06
2022-08-01T08:38:55.910Z,99922.00
2022-08-01T08:41:44.456Z,99922.56
2022-08-01T08:44:37.868Z,99918.91
2022-08-01T08:47:26.693Z,99927.16
2022-08-01T08:50:15.251Z,99920.94
2022-08-01T08:53:06.481Z,99922.00
2022-08-01T08:55:56.690Z,99920.97
2022-08-01T08:58:46.703Z,99920.50
2022-08-01T09:01:36.167Z,99921.84
2022-08-01T09:04:26.427Z,99921.28
2022-08-01T09:07:15.325Z,99915.25
2022-08-01T09:10:06.342Z,99915.59
2022-08-01T09:13:08.207Z,99914.81
2022-08-01T09:15:59.644Z,99924.38
2022-08-01T09:18:53.365Z,99919.50
2022-08-01T09:21:42.845Z,99916.34
2022-08-01T09:24:32.661Z,99922.66
2022-08-01T09:27:24.648Z,99922.09
2022-08-01T09:30:17.237Z,99920.78
2022-08-01T09:33:17.752Z,99925.47
2022-08-01T09:36:07.629Z,99924.16
2022-08-01T09:39:07.034Z,99928.03
2022-08-01T09:41:58.396Z,99931.38
2022-08-01T09:44:51.302Z,99939.16
2022-08-01T09:47:43.850Z,99933.44
2022-08-01T09:50:42.615Z,99928.97
2022-08-01T09:53:42.065Z,99924.81
2022-08-01T09:56:30.730Z,99928.59
2022-08-01T09:59:19.692Z,99934.09
2022-08-01T10:02:09.728Z,99930.91
2022-08-01T10:05:03.306Z,99926.16
2022-08-01T10:08:00.681Z,99923.09
2022-08-01T10:11:10.031Z,99915.81
2022-08-01T10:14:01.232Z,99916.44
2022-08-01T10:16:53.581Z,99918.25
2022-08-01T10:19:46.635Z,99904.75
2022-08-01T10:22:35.827Z,99904.81
2022-08-01T10:25:43.609Z,99911.13
2022-08-01T10:28:33.504Z,99913.00
2022-08-01T10:31:30.871Z,99912.28
2022-08-01T10:34:20.765Z,99913.28
2022-08-01T10:37:14.631Z,99905.88
2022-08-01T10:40:29.575Z,99905.00
2022-08-01T10:43:15.206Z,99907.91
2022-08-01T10:46:10.536Z,99895.03
2022-08-01T10:49:04.679Z,99894.75
2022-08-01T10:51:54.823Z,99899.25
2022-08-01T10:54:52.853Z,99903.94
2022-08-01T10:57:48.835Z,99901.19
2022-08-01T11:00:41.282Z,99891.63
2022-08-01T11:03:56.065Z,99902.03
2022-08-01T11:06:56.070Z,99896.00
2022-08-01T11:09:51.790Z,99895.84
2022-08-01T11:12:41.180Z,99897.94
2022-08-01T11:15:32.586Z,99892.25
2022-08-01T11:18:37.407Z,99883.69
2022-08-01T11:22:05.927Z,99886.69
2022-08-01T11:24:58.993Z,99881.50
2022-08-01T11:27:49.916Z,99879.00
2022-08-01T11:30:38.395Z,99880.38
2022-08-01T11:33:51.925Z,99875.72
2022-08-01T11:36:59.866Z,99855.41
2022-08-01T11:40:22.946Z,99867.22
2022-08-01T11:43:19.604Z,99869.03
2022-08-01T11:46:08.392Z,99862.16
2022-08-01T11:49:35.966Z,99849.06
2022-08-01T11:52:29.008Z,99854.63
2022-08-01T11:55:17.486Z,99848.38
2022-08-01T11:58:08.853Z,99858.13
2022-08-01T12:01:10.617Z,99850.22
2022-08-01T12:03:59.164Z,99856.09
2022-08-01T12:06:47.828Z,99850.03
2022-08-01T12:09:39.519Z,99857.47
2022-08-01T12:12:28.055Z,99840.94
2022-08-01T12:15:18.427Z,99846.59
2022-08-01T12:18:07.881Z,99834.69
2022-08-01T12:21:05.610Z,99829.50
2022-08-01T12:24:03.074Z,99830.44
2022-08-01T12:26:51.971Z,99829.22
2022-08-01T12:29:42.574Z,99830.19
2022-08-01T12:32:35.710Z,99830.25
2022-08-01T12:35:26.464Z,99839.19
2022-08-01T12:38:17.076Z,99837.13
2022-08-01T12:41:05.612Z,99839.16
2022-08-01T12:43:54.124Z,99830.91
2022-08-01T12:46:44.467Z,99827.94
2022-08-01T12:49:34.876Z,99825.03
2022-08-01T12:52:26.760Z,99822.63
2022-08-01T12:55:18.211Z,99832.91
2022-08-01T12:58:13.945Z,99826.09
2022-08-01T13:01:06.293Z,99818.13
2022-08-01T13:04:01.864Z,99820.56
2022-08-01T13:06:55.208Z,99822.94
2022-08-01T13:09:51.867Z,99814.25
2022-08-01T13:12:40.688Z,99810.31
2022-08-01T13:15:33.084Z,99814.72
2022-08-01T13:18:25.766Z,99816.38
2022-08-01T13:21:16.261Z,99812.59
2022-08-01T13:24:09.076Z,99816.91
2022-08-01T13:27:00.494Z,99807.00
2022-08-01T13:29:50.761Z,99802.69
2022-08-01T13:32:39.545Z,99810.13
2022-08-01T13:35:28.345Z,99805.03
2022-08-01T13:38:16.907Z,99806.09
2022-08-01T13:41:07.092Z,99813.13
2022-08-01T13:43:58.940Z,99818.06
2022-08-01T13:46:49.726Z,99806.56
2022-08-01T13:49:40.923Z,99799.41
2022-08-01T13:52:29.654Z,99798.03
2022-08-01T13:55:18.162Z,99796.19
2022-08-01T13:58:08.609Z,99793.72
2022-08-01T14:00:57.293Z,99797.22
2022-08-01T14:03:45.915Z,99796.78
2022-08-01T14:06:35.967Z,99789.78
2022-08-01T14:09:24.915Z,99785.84
2022-08-01T14:12:20.705Z,99786.41
2022-08-01T14:15:13.809Z,99784.53
2022-08-01T14:18:02.355Z,99785.31
2022-08-01T14:20:50.944Z,99789.56
2022-08-01T14:23:51.520Z,99784.56
2022-08-01T14:26:39.978Z,99785.69
2022-08-01T14:30:01.129Z,99785.47
2022-08-01T14:32:38.402Z,99781.00
2022-08-01T14:35:27.064Z,99779.75
2022-08-01T14:38:21.806Z,99788.72
2022-08-01T14:41:19.906Z,99790.72
2022-08-01T14:44:09.895Z,99795.19
2022-08-01T14:46:58.884Z,99793.06
2022-08-01T14:49:48.861Z,99787.75
2022-08-01T14:52:37.751Z,99789.63
2022-08-01T14:55:27.978Z,99795.00
2022-08-01T14:58:16.493Z,99789.88
2022-08-01T15:01:06.736Z,99784.94
2022-08-01T15:03:56.774Z,99776.41
2022-08-01T15:06:47.187Z,99772.72
2022-08-01T15:09:35.718Z,99767.78
2022-08-01T15:12:24.217Z,99773.31
2022-08-01T15:15:12.908Z,99767.97
2022-08-01T15:18:01.619Z,99768.59
2022-08-01T15:20:50.128Z,99773.88
2022-08-01T15:23:40.038Z,99783.69
2022-08-01T15:26:29.169Z,99775.44
2022-08-01T15:29:17.650Z,99783.59
2022-08-01T15:32:07.738Z,99780.28
2022-08-01T15:34:56.636Z,99787.63
2022-08-01T15:37:45.323Z,99787.63
2022-08-01T15:40:35.818Z,99781.59
2022-08-01T15:43:24.431Z,99791.44
2022-08-01T15:46:15.615Z,99787.84
2022-08-01T15:49:04.622Z,99778.66
2022-08-01T15:51:53.277Z,99781.97
2022-08-01T15:54:42.467Z,99780.84
2022-08-01T15:57:33.267Z,99777.91
2022-08-01T16:00:21.735Z,99787.50
2022-08-01T16:03:10.724Z,99787.09
2022-08-01T16:05:59.240Z,99788.25
2022-08-01T16:08:47.787Z,99783.34
2022-08-01T16:11:39.670Z,99787.63
2022-08-01T16:14:32.391Z,99787.50
2022-08-01T16:17:20.941Z,99779.53
2022-08-01T16:20:11.164Z,99781.16
2022-08-01T16:22:59.665Z,99776.00
2022-08-01T16:25:48.129Z,99791.84
2022-08-01T16:28:36.668Z,99781.94
2022-08-01T16:31:37.715Z,99785.38
2022-08-01T16:34:35.793Z,99776.75
2022-08-01T16:37:25.456Z,99768.97
2022-08-01T16:40:14.162Z,99769.88
2022-08-01T16:43:02.713Z,99769.00
2022-08-01T16:45:51.210Z,99762.41
2022-08-01T16:48:41.578Z,99766.28
2022-08-01T16:51:32.644Z,99757.28
2022-08-01T16:54:25.650Z,99760.78
2022-08-01T16:57:15.174Z,99755.47
2022-08-01T17:00:06.724Z,99756.63
2022-08-01T17:02:55.305Z,99759.38
2022-08-01T17:05:45.119Z,99755.53
2022-08-01T17:08:33.694Z,99766.38
2022-08-01T17:11:22.177Z,99772.06
2022-08-01T17:14:10.722Z,99772.94
2022-08-01T17:16:59.337Z,99775.56
2022-08-01T17:19:47.902Z,99780.59
2022-08-01T17:22:37.877Z,99777.63
2022-08-01T17:25:26.456Z,99795.19
2022-08-01T17:28:15.614Z,99793.72
2022-08-01T17:31:04.118Z,99800.00
2022-08-01T17:33:59.261Z,99805.84
2022-08-01T17:36:47.727Z,99799.63
2022-08-01T17:39:39.578Z,99806.09
2022-08-01T17:42:30.109Z,99801.16
2022-08-01T17:45:27.536Z,99809.78
2022-08-01T17:48:17.266Z,99809.69
2022-08-01T17:51:06.409Z,99801.41
2022-08-01T17:53:56.839Z,99808.34
2022-08-01T17:56:47.696Z,99810.66
2022-08-01T17:59:36.179Z,99818.00
2022-08-01T18:02:24.939Z,99821.13
2022-08-01T18:05:13.435Z,99818.44
2022-08-01T18:08:04.293Z,99820.97
2022-08-01T18:10:53.449Z,99821.28
2022-08-01T18:13:43.403Z,99825.44
2022-08-01T18:16:31.984Z,99823.00
2022-08-01T18:19:20.999Z,99822.88
2022-08-01T18:22:19.536Z,99822.88
2022-08-01T18:25:18.084Z,99822.03
2022-08-01T18:28:16.341Z,99826.16
2022-08-01T18:31:17.620Z,99820.69
2022-08-01T18:34:06.340Z,99826.66
2022-08-01T18:36:56.352Z,99831.13
2022-08-01T18:39:46.130Z,99824.97
2022-08-01T18:42:34.670Z,99831.97
2022-08-01T18:45:23.189Z,99831.97
2022-08-01T18:48:13.186Z,99839.25
2022-08-01T18:51:01.676Z,99838.59
2022-08-01T18:53:52.338Z,99838.94
2022-08-01T18:56:40.860Z,99836.81
2022-08-01T18:59:29.347Z,99834.03
2022-08-01T19:02:17.930Z,99838.19
2022-08-01T19:05:09.018Z,99843.34
2022-08-01T19:08:06.467Z,99845.16
2022-08-01T19:10:55.960Z,99859.28
2022-08-01T19:13:44.432Z,99863.59
2022-08-01T19:16:32.978Z,99868.59
2022-08-01T19:19:27.530Z,99877.84
2022-08-01T19:22:18.625Z,99882.16
2022-08-01T19:25:08.159Z,99895.66
2022-08-01T19:27:56.610Z,99901.47
2022-08-01T19:30:45.115Z,99908.56
2022-08-01T19:33:42.211Z,99901.78
2022-08-01T19:36:30.644Z,99908.53
2022-08-01T19:39:23.542Z,99909.50
2022-08-01T19:42:12.818Z,99919.19
2022-08-01T19:45:02.341Z,99917.34
2022-08-01T19:47:57.068Z,99925.25
2022-08-01T19:50:46.341Z,99917.59
2022-08-01T19:53:38.038Z,99926.81
2022-08-01T19:56:28.039Z,99924.41
2022-08-01T19:59:17.381Z,99927.75
2022-08-01T20:02:06.157Z,99930.94
2022-08-01T20:04:54.662Z,99932.72
2022-08-01T20:07:43.162Z,99938.91
2022-08-01T20:10:31.992Z,99938.34
2022-08-01T20:13:21.804Z,99941.31
2022-08-01T20:16:10.357Z,99944.19
2022-08-01T20:18:58.912Z,99937.38
2022-08-01T20:22:02.618Z,99949.22
2022-08-01T20:24:55.613Z,99948.53
2022-08-01T20:27:44.079Z,99943.75
2022-08-01T20:30:34.077Z,99940.09
2022-08-01T20:33:22.610Z,99941.59
2022-08-01T20:36:12.117Z,99938.72
2022-08-01T20:39:15.254Z,99939.19
2022-08-01T20:42:04.007Z,99946.25
2022-08-01T20:44:53.060Z,99947.44
2022-08-01T20:47:43.028Z,99966.00
2022-08-01T20:51:00.685Z,99959.09
2022-08-01T20:53:52.510Z,99952.88
2022-08-01T20:56:46.733Z,99964.94
2022-08-01T20:59:56.588Z,99968.25
2022-08-01T21:02:51.622Z,99962.84
2022-08-01T21:05:55.978Z,99959.38
2022-08-01T21:08:49.834Z,99962.53
2022-08-01T21:11:43.761Z,99961.31
2022-08-01T21:14:43.987Z,99968.06
2022-08-01T21:17:39.607Z,99959.75
2022-08-01T21:20:30.841Z,99962.94
2022-08-01T21:23:25.021Z,99976.06
2022-08-01T21:26:13.811Z,99979.09
2022-08-01T21:29:02.575Z,99972.31
2022-08-01T21:32:11.488Z,99973.84
2022-08-01T21:35:00.065Z,99976.06
2022-08-01T21:37:52.351Z,99978.16
2022-08-01T21:40:41.480Z,99978.56
2022-08-01T21:43:32.516Z,99976.38
2022-08-01T21:46:22.141Z,99983.97
2022-08-01T21:49:10.770Z,99991.44
2022-08-01T21:52:08.841Z,99993.66
2022-08-01T21:55:02.898Z,99996.16
2022-08-01T21:58:16.674Z,99994.22
2022-08-01T22:01:09.105Z,100006.97
2022-08-01T22:03:57.784Z,99999.47
2022-08-01T22:06:46.678Z,100000.88
2022-08-01T22:09:35.274Z,100003.41
2022-08-01T22:12:25.641Z,100008.38
2022-08-01T22:15:15.165Z,100015.16
2022-08-01T22:18:03.757Z,100014.19
2022-08-01T22:20:52.477Z,100023.91
2022-08-01T22:23:41.959Z,100027.19
2022-08-01T22:26:30.532Z,100025.53
2022-08-01T22:29:20.520Z,100023.03
2022-08-01T22:32:09.474Z,100022.09
2022-08-01T22:34:58.794Z,100019.47
2022-08-01T22:37:56.938Z,100022.22
2022-08-01T22:40:51.037Z,100005.88
2022-08-01T22:43:44.091Z,100016.66
2022-08-01T22:46:41.374Z,100009.06
2022-08-01T22:49:35.790Z,100010.97
2022-08-01T22:52:29.545Z,100011.94
2022-08-01T22:55:20.138Z,100013.47
2022-08-01T22:58:08.848Z,100011.66
2022-08-01T23:01:00.077Z,100005.81
2022-08-01T23:03:51.763Z,100013.13
2022-08-01T23:06:42.961Z,100007.00
2022-08-01T23:09:53.202Z,100025.25
2022-08-01T23:12:40.962Z,100020.38
2022-08-01T23:15:29.651Z,100023.66
2022-08-01T23:18:18.326Z,100023.75
2022-08-01T23:21:09.043Z,100027.16
2022-08-01T23:23:57.622Z,100021.72
2022-08-01T23:26:46.266Z,100025.72
2022-08-01T23:29:34.852Z,100020.16
2022-08-01T23:32:23.789Z,100014.28
2022-08-01T23:35:12.506Z,100020.22
2022-08-01T23:38:03.266Z,100015.31
2022-08-01T23:40:51.928Z,100016.78
2022-08-01T23:43:41.498Z,100011.09
2022-08-01T23:46:40.995Z,100016.84
2022-08-01T23:49:29.578Z,100020.66
2022-08-01T23:52:20.747Z,100007.94
2022-08-01T23:55:15.244Z,100010.94
2022-08-01T23:58:06.134Z,100004.28
